createdAt,value
2022-12-12T00:02:43.555Z,54.13
2022-12-12T00:06:44.934Z,64.20
2022-12-12T00:10:46.074Z,58.40
2022-12-12T00:14:47.218Z,57.47
2022-12-12T00:18:48.469Z,51.40
2022-12-12T00:22:49.612Z,52.93
2022-12-12T00:26:50.597Z,58.27
2022-12-12T00:30:51.974Z,57.93
2022-12-12T00:34:53.204Z,57.70
2022-12-12T00:38:55.889Z,59.37
2022-12-12T00:42:57.231Z,60.97
2022-12-12T00:46:58.226Z,50.13
2022-12-12T00:51:05.785Z,57.87
2022-12-12T00:55:07.826Z,53.93
2022-12-12T00:59:08.808Z,59.27
2022-12-12T01:03:09.839Z,57.97
2022-12-12T01:07:10.948Z,52.33
2022-12-12T01:11:13.740Z,46.77
2022-12-12T01:15:15.881Z,52.17
2022-12-12T01:19:17.066Z,46.33
2022-12-12T01:23:18.007Z,51.23
2022-12-12T01:27:19.159Z,56.27
2022-12-12T01:31:20.829Z,56.83
2022-12-12T01:35:23.505Z,50.67
2022-12-12T01:39:24.485Z,55.93
2022-12-12T01:43:25.820Z,57.00
2022-12-12T01:47:27.203Z,53.33
2022-12-12T01:51:30.194Z,56.03
2022-12-12T01:55:31.172Z,49.63
2022-12-12T01:59:33.422Z,53.23
2022-12-12T02:03:34.949Z,56.57
2022-12-12T02:07:35.895Z,58.20
2022-12-12T02:11:46.364Z,56.97
2022-12-12T02:16:07.709Z,52.43
2022-12-12T02:20:41.607Z,56.00
2022-12-12T02:25:08.003Z,51.50
2022-12-12T02:29:29.528Z,55.83
2022-12-12T02:33:34.294Z,54.17
2022-12-12T02:37:45.048Z,61.50
2022-12-12T02:41:52.829Z,61.50
2022-12-12T02:45:57.612Z,61.37
2022-12-12T02:50:02.417Z,64.33
2022-12-12T02:54:05.467Z,59.70
2022-12-12T02:58:06.755Z,67.27
2022-12-12T03:02:41.008Z,66.77
2022-12-12T03:07:10.251Z,68.97
2022-12-12T03:11:21.278Z,58.33
2022-12-12T03:15:25.407Z,62.53
2022-12-12T03:19:39.570Z,58.57
2022-12-12T03:23:47.232Z,56.40
2022-12-12T03:27:55.006Z,48.90
2022-12-12T03:31:59.940Z,52.00
2022-12-12T03:36:16.735Z,49.17
2022-12-12T03:40:41.527Z,56.73
2022-12-12T03:44:51.969Z,55.83
2022-12-12T03:49:14.630Z,55.77
2022-12-12T03:53:25.515Z,57.93
2022-12-12T03:57:30.208Z,61.20
2022-12-12T04:01:35.172Z,60.17
2022-12-12T04:05:47.706Z,62.27
2022-12-12T04:10:07.801Z,62.37
2022-12-12T04:14:24.408Z,56.63
2022-12-12T04:18:41.140Z,57.57
2022-12-12T04:22:50.735Z,51.40
2022-12-12T04:27:01.298Z,58.57
2022-12-12T04:31:04.939Z,56.60
2022-12-12T04:35:13.104Z,64.57
2022-12-12T04:39:17.678Z,61.53
2022-12-12T04:43:22.482Z,66.20
2022-12-12T04:47:25.156Z,61.37
2022-12-12T04:51:29.959Z,65.00
2022-12-12T04:55:33.952Z,60.37
2022-12-12T04:59:35.434Z,59.50
2022-12-12T05:03:55.572Z,64.17
2022-12-12T05:08:09.087Z,56.03
2022-12-12T05:12:10.335Z,54.03
2022-12-12T05:16:33.586Z,55.53
2022-12-12T05:20:34.690Z,60.40
2022-12-12T05:24:35.680Z,54.43
2022-12-12T05:28:36.685Z,62.83
2022-12-12T05:32:37.919Z,52.07
2022-12-12T05:36:39.059Z,56.47
2022-12-12T05:40:40.101Z,47.27
2022-12-12T05:44:41.291Z,45.20
2022-12-12T05:48:42.603Z,49.03
2022-12-12T05:52:44.420Z,55.70
2022-12-12T05:56:45.482Z,61.30
2022-12-12T06:00:48.425Z,57.63
2022-12-12T06:04:49.570Z,53.63
2022-12-12T06:08:51.078Z,50.13
2022-12-12T06:12:52.237Z,58.37
2022-12-12T06:16:53.465Z,49.43
2022-12-12T06:20:58.421Z,45.83
2022-12-12T06:24:59.414Z,50.07
2022-12-12T06:29:00.717Z,49.73
2022-12-12T06:33:01.817Z,48.00
2022-12-12T06:37:03.268Z,51.10
2022-12-12T06:41:07.513Z,43.57
2022-12-12T06:45:09.194Z,46.67
2022-12-12T06:49:10.445Z,49.13
2022-12-12T06:53:12.114Z,47.30
2022-12-12T06:57:13.361Z,41.77
2022-12-12T07:01:18.065Z,41.43
2022-12-12T07:05:19.300Z,44.80
2022-12-12T07:09:20.473Z,45.17
2022-12-12T07:13:21.757Z,48.60
2022-12-12T07:17:22.736Z,48.43
2022-12-12T07:21:23.914Z,47.63
2022-12-12T07:25:25.002Z,56.30
2022-12-12T07:29:25.966Z,50.20
2022-12-12T07:33:34.314Z,46.73
2022-12-12T07:37:30.131Z,50.23
2022-12-12T07:41:31.277Z,47.07
2022-12-12T07:45:32.546Z,55.30
2022-12-12T07:49:33.641Z,46.63
2022-12-12T07:53:34.835Z,54.93
2022-12-12T07:57:37.102Z,42.03
2022-12-12T08:01:38.798Z,47.97
2022-12-12T08:05:41.393Z,39.83
2022-12-12T08:09:42.485Z,45.43
2022-12-12T08:13:43.798Z,42.07
2022-12-12T08:17:44.772Z,43.90
2022-12-12T08:21:46.070Z,39.23
2022-12-12T08:25:47.035Z,39.63
2022-12-12T08:29:53.039Z,44.67
2022-12-12T08:33:54.646Z,45.53
2022-12-12T08:37:56.454Z,43.20
2022-12-12T08:41:57.745Z,46.47
2022-12-12T08:46:03.242Z,47.47
2022-12-12T08:50:05.426Z,52.33
2022-12-12T08:54:07.436Z,46.37
2022-12-12T08:58:08.618Z,51.73
2022-12-12T09:02:12.248Z,44.13
2022-12-12T09:06:14.945Z,49.13
2022-12-12T09:10:16.201Z,49.23
2022-12-12T09:14:17.473Z,45.67
2022-12-12T09:18:20.152Z,47.77
2022-12-12T09:22:21.511Z,49.27
2022-12-12T09:26:22.510Z,49.67
2022-12-12T09:30:23.688Z,45.27
2022-12-12T09:34:24.869Z,41.83
2022-12-12T09:38:27.169Z,49.77
2022-12-12T09:42:31.117Z,45.53
2022-12-12T09:46:44.627Z,46.37
2022-12-12T09:50:48.589Z,48.10
2022-12-12T09:54:49.517Z,43.40
2022-12-12T09:59:09.451Z,51.23
2022-12-12T10:03:29.454Z,52.53
2022-12-12T10:07:34.214Z,45.77
2022-12-12T10:11:52.187Z,50.60
2022-12-12T10:15:56.332Z,48.73
2022-12-12T10:20:02.037Z,41.67
2022-12-12T10:24:12.949Z,44.30
2022-12-12T10:28:35.668Z,50.70
2022-12-12T10:32:46.349Z,57.13
2022-12-12T10:37:00.160Z,43.30
2022-12-12T10:41:17.113Z,52.23
2022-12-12T10:45:28.045Z,57.07
2022-12-12T10:49:30.207Z,47.77
2022-12-12T10:53:31.779Z,52.20
2022-12-12T10:57:36.077Z,54.93
2022-12-12T11:02:08.424Z,58.07
2022-12-12T11:05:41.476Z,64.00
2022-12-12T11:09:45.284Z,67.90
2022-12-12T11:13:52.934Z,128.43
2022-12-12T11:18:01.247Z,49.73
2022-12-12T11:22:03.750Z,53.03
2022-12-12T11:26:13.507Z,44.57
2022-12-12T11:30:38.721Z,51.60
2022-12-12T11:34:43.578Z,42.13
2022-12-12T11:38:51.307Z,31.73
2022-12-12T11:42:56.216Z,44.37
2022-12-12T11:47:17.464Z,32.00
2022-12-12T11:51:34.374Z,30.10
2022-12-12T11:56:00.429Z,30.43
2022-12-12T12:00:08.847Z,31.97
2022-12-12T12:04:19.649Z,32.80
2022-12-12T12:08:30.659Z,31.77
2022-12-12T12:12:38.155Z,29.97
2022-12-12T12:16:55.301Z,32.20
2022-12-12T12:21:02.998Z,31.47
2022-12-12T12:25:25.865Z,31.33
2022-12-12T12:29:30.645Z,29.20
2022-12-12T12:34:00.090Z,27.83
2022-12-12T12:38:14.077Z,29.47
2022-12-12T12:42:36.851Z,29.07
2022-12-12T12:46:53.982Z,30.37
2022-12-12T12:51:15.789Z,31.73
2022-12-12T12:55:20.571Z,33.90
2022-12-12T12:59:25.350Z,35.17
2022-12-12T13:03:30.180Z,34.70
2022-12-12T13:07:44.325Z,40.57
2022-12-12T13:11:48.453Z,43.77
2022-12-12T13:16:08.723Z,47.33
2022-12-12T13:20:19.980Z,47.67
2022-12-12T13:24:27.698Z,54.53
2022-12-12T13:28:32.653Z,52.90
2022-12-12T13:32:57.327Z,60.73
2022-12-12T13:36:59.134Z,54.60
2022-12-12T13:41:05.749Z,54.50
2022-12-12T13:45:38.292Z,53.50
2022-12-12T13:49:55.354Z,52.13
2022-12-12T13:54:14.209Z,62.27
2022-12-12T13:58:22.054Z,67.80
2022-12-12T14:02:32.728Z,67.60
2022-12-12T14:06:33.907Z,67.60
2022-12-12T14:10:38.452Z,59.13
2022-12-12T14:14:41.538Z,59.40
2022-12-12T14:18:58.942Z,68.63
2022-12-12T14:23:10.043Z,63.00
2022-12-12T14:27:11.362Z,68.27
2022-12-12T14:31:16.641Z,68.10
2022-12-12T14:35:24.761Z,64.17
2022-12-12T14:39:36.112Z,57.63
2022-12-12T14:43:41.247Z,62.17
2022-12-12T14:47:42.345Z,64.67
2022-12-12T14:51:47.465Z,66.67
2022-12-12T14:55:52.065Z,61.53
2022-12-12T14:59:53.135Z,67.03
2022-12-12T15:03:55.033Z,65.30
2022-12-12T15:07:59.332Z,71.70
2022-12-12T15:12:13.074Z,62.80
2022-12-12T15:16:14.354Z,78.93
2022-12-12T15:20:22.253Z,71.93
2022-12-12T15:24:29.167Z,80.00
2022-12-12T15:28:32.172Z,79.87
2022-12-12T15:32:33.240Z,79.40
2022-12-12T15:36:34.500Z,78.17
2022-12-12T15:40:37.000Z,75.57
2022-12-12T15:44:39.480Z,80.47
2022-12-12T15:48:46.972Z,66.92
2022-12-12T15:53:01.040Z,64.17
2022-12-12T15:57:02.377Z,66.97
2022-12-12T16:01:21.752Z,65.57
2022-12-12T16:05:26.319Z,75.70
2022-12-12T16:09:27.712Z,113.10
2022-12-12T16:13:43.712Z,104.73
2022-12-12T16:18:00.854Z,90.43
2022-12-12T16:22:22.333Z,71.62
2022-12-12T16:26:23.550Z,57.63
2022-12-12T16:30:25.983Z,64.55
2022-12-12T16:34:27.193Z,63.97
2022-12-12T16:38:29.950Z,71.03
2022-12-12T16:42:31.131Z,54.97
2022-12-12T16:46:32.152Z,64.00
2022-12-12T16:50:33.373Z,64.80
2022-12-12T16:54:34.530Z,67.50
2022-12-12T16:58:36.975Z,66.33
2022-12-12T17:02:38.678Z,56.93
2022-12-12T17:06:39.714Z,64.10
2022-12-12T17:10:41.367Z,59.43
2022-12-12T17:14:42.526Z,54.97
2022-12-12T17:18:43.820Z,52.45
2022-12-12T17:22:45.259Z,72.23
2022-12-12T17:26:46.544Z,81.33
2022-12-12T17:30:49.753Z,65.43
2022-12-12T17:34:50.791Z,57.80
2022-12-12T17:38:51.992Z,61.67
2022-12-12T17:42:52.983Z,68.03
2022-12-12T17:46:55.608Z,70.13
2022-12-12T17:51:02.170Z,105.83
2022-12-12T17:55:54.569Z,100.40
2022-12-12T17:59:08.035Z,84.23
2022-12-12T18:03:09.333Z,85.37
2022-12-12T18:07:10.497Z,148.70
2022-12-12T18:11:14.768Z,64.80
2022-12-12T18:15:15.973Z,67.17
2022-12-12T18:19:22.915Z,62.60
2022-12-12T18:23:24.221Z,62.97
2022-12-12T18:27:25.672Z,58.87
2022-12-12T18:31:27.713Z,70.35
2022-12-12T18:35:29.030Z,77.97
2022-12-12T18:39:30.475Z,63.50
2022-12-12T18:43:32.865Z,89.80
2022-12-12T18:47:34.804Z,87.17
2022-12-12T18:51:36.597Z,84.83
2022-12-12T18:55:44.061Z,78.33
2022-12-12T18:59:46.188Z,73.85
2022-12-12T19:03:51.408Z,68.23
2022-12-12T19:07:53.558Z,72.23
2022-12-12T19:12:02.211Z,90.28
2022-12-12T19:16:06.056Z,92.43
2022-12-12T19:20:08.514Z,78.87
2022-12-12T19:24:11.703Z,68.17
2022-12-12T19:28:12.987Z,67.87
2022-12-12T19:32:15.218Z,64.90
2022-12-12T19:36:24.171Z,62.00
2022-12-12T19:40:25.246Z,62.37
2022-12-12T19:44:26.634Z,86.67
2022-12-12T19:48:27.773Z,133.90
2022-12-12T19:52:28.857Z,109.73
2022-12-12T19:56:33.401Z,88.43
2022-12-12T20:00:35.033Z,76.37
2022-12-12T20:04:38.178Z,95.70
2022-12-12T20:08:39.326Z,95.67
2022-12-12T20:12:49.401Z,100.53
2022-12-12T20:16:44.318Z,114.77
2022-12-12T20:20:45.370Z,99.67
2022-12-12T20:24:46.690Z,87.90
2022-12-12T20:28:48.290Z,101.87
2022-12-12T20:32:49.249Z,99.20
2022-12-12T20:36:50.143Z,100.33
2022-12-12T20:40:51.266Z,112.80
2022-12-12T20:44:52.489Z,100.23
2022-12-12T20:48:53.493Z,107.63
2022-12-12T20:52:54.628Z,150.30
2022-12-12T20:56:57.517Z,99.53
2022-12-12T21:00:58.964Z,184.47
2022-12-12T21:05:00.185Z,95.90
2022-12-12T21:09:04.874Z,109.57
2022-12-12T21:13:06.315Z,129.17
2022-12-12T21:17:07.426Z,158.83
2022-12-12T21:21:11.859Z,122.93
2022-12-12T21:25:13.188Z,112.23
2022-12-12T21:29:15.521Z,116.10
2022-12-12T21:33:16.800Z,106.07
2022-12-12T21:37:18.071Z,123.07
2022-12-12T21:41:20.624Z,93.87
2022-12-12T21:45:21.967Z,91.63
2022-12-12T21:53:33.832Z,89.43
2022-12-12T21:57:35.098Z,113.70
2022-12-12T22:01:36.157Z,129.67
2022-12-12T22:05:37.112Z,130.90
2022-12-12T22:09:39.418Z,101.63
2022-12-12T22:13:42.103Z,148.50
2022-12-12T22:17:43.120Z,143.80
2022-12-12T22:21:46.346Z,88.93
2022-12-12T22:25:47.922Z,124.93
2022-12-12T22:29:48.890Z,106.37
2022-12-12T22:33:55.483Z,112.97
2022-12-12T22:37:56.483Z,99.50
2022-12-12T22:41:57.439Z,153.80
2022-12-12T22:46:06.610Z,87.57
2022-12-12T22:50:08.139Z,90.23
2022-12-12T22:54:09.391Z,64.27
2022-12-12T22:58:10.241Z,132.03
2022-12-12T23:02:11.184Z,119.13
2022-12-12T23:06:16.021Z,116.57
2022-12-12T23:10:17.429Z,121.10
2022-12-12T23:14:22.392Z,86.80
2022-12-12T23:18:23.687Z,129.43
2022-12-12T23:22:24.964Z,137.97
2022-12-12T23:26:29.257Z,144.70
2022-12-12T23:30:30.371Z,80.50
2022-12-12T23:34:31.335Z,133.87
2022-12-12T23:38:32.740Z,85.70
2022-12-12T23:42:33.755Z,110.40
2022-12-12T23:46:35.679Z,98.07
2022-12-12T23:50:36.794Z,91.73
2022-12-12T23:54:37.917Z,64.27
2022-12-12T23:58:39.029Z,111.77
